Time;durP1;ratioP1;P1;durP2;ratioP2;P2;SDS_P1;SDS_P2;PMS_P1;PMS_P2;Temp;Humidity;BMP_temperature;BMP_pressure;BME280_temperature;BME280_humidity;BME280_pressure;Samples;Min_cycle;Max_cycle;Signal;HPM_P1;HPM_P2
2023/04/27 00:01:41;;;;;;;;;;;;;;;11.69;53.51;92676.91;2038884;70;20056;-76
2023/04/27 00:04:09;;;;;;;;;;;;;;;11.65;52.34;92673.13;2038761;70;20063;-76
2023/04/27 00:06:35;;;;;;;;;;;;;;;11.66;53.04;92664.03;2038713;70;20496;-76
2023/04/27 00:09:05;;;;;;;;;;;;;;;11.56;54.27;92671.22;2038497;70;20079;-76
2023/04/27 00:11:34;;;;;;;;;;;;;;;11.56;55.10;92676.84;2038411;70;20627;-76
2023/04/27 00:14:00;;;;;;;;;;;;;;;11.61;53.19;92679.28;2038798;70;20051;-75
2023/04/27 00:16:25;;;;;;;;;;;;;;;11.66;53.09;92669.69;2038632;70;20428;-75
2023/04/27 00:18:51;;;;;;;;;;;;;;;11.59;53.91;92667.88;2038297;70;20055;-76
2023/04/27 00:21:16;;;;;;;;;;;;;;;11.67;52.08;92662.69;2035097;70;20048;-75
2023/04/27 00:23:42;;;;;;;;;;;;;;;11.49;55.22;92675.75;2035194;70;20068;-75
2023/04/27 00:26:07;;;;;;;;;;;;;;;11.55;53.73;92669.75;2038413;70;20059;-75
2023/04/27 00:28:33;;;;;;;;;;;;;;;11.50;53.45;92671.59;2038648;70;20146;-76
2023/04/27 00:31:02;;;;;;;;;;;;;;;11.40;52.74;92668.19;2038587;70;20064;-75
2023/04/27 00:33:27;;;;;;;;;;;;;;;11.42;54.49;92663.41;2035062;70;20056;-75
2023/04/27 00:35:58;;;;;;;;;;;;;;;11.43;53.06;92656.41;2038268;70;20060;-76
2023/04/27 00:38:24;;;;;;;;;;;;;;;11.39;52.88;92658.28;2038567;70;20208;-76
2023/04/27 00:40:50;;;;;;;;;;;;;;;11.40;52.94;92657.66;2038566;70;20143;-75
2023/04/27 00:43:15;;;;;;;;;;;;;;;11.28;52.48;92661.88;2038369;70;20507;-76
2023/04/27 00:45:42;;;;;;;;;;;;;;;11.06;53.28;92656.41;2037400;70;20489;-75
2023/04/27 00:48:07;;;;;;;;;;;;;;;11.22;53.13;92653.78;2038594;70;20059;-75
2023/04/27 00:50:33;;;;;;;;;;;;;;;11.36;52.22;92648.22;2038798;70;20499;-75
2023/04/27 00:53:00;;;;;;;;;;;;;;;11.43;52.29;92647.97;2035209;70;20473;-76
2023/04/27 00:55:26;;;;;;;;;;;;;;;11.37;52.74;92660.97;2038742;70;20059;-76
2023/04/27 00:57:53;;;;;;;;;;;;;;;11.30;52.51;92659.16;2038568;70;20474;-76
2023/04/27 01:00:18;;;;;;;;;;;;;;;11.26;53.43;92654.00;2038209;70;20075;-76
2023/04/27 01:02:46;;;;;;;;;;;;;;;11.14;53.31;92639.97;2035452;70;20052;-77
2023/04/27 01:05:12;;;;;;;;;;;;;;;11.10;53.00;92647.47;2035485;70;20663;-76
2023/04/27 01:07:38;;;;;;;;;;;;;;;11.30;52.75;92653.53;2038772;70;20143;-77
2023/04/27 01:10:04;;;;;;;;;;;;;;;11.33;53.83;92655.84;2034975;70;20056;-76
2023/04/27 01:12:30;;;;;;;;;;;;;;;11.24;54.82;92650.38;2035371;70;20052;-77
2023/04/27 01:14:55;;;;;;;;;;;;;;;11.11;56.15;92651.75;2038893;70;20477;-76
2023/04/27 01:17:21;;;;;;;;;;;;;;;11.10;56.54;92656.66;2037978;70;20100;-74
2023/04/27 01:19:50;;;;;;;;;;;;;;;11.06;56.92;92650.78;2035352;70;20064;-75
2023/04/27 01:22:16;;;;;;;;;;;;;;;11.04;56.54;92642.22;2038988;70;20048;-76
2023/04/27 01:24:41;;;;;;;;;;;;;;;11.02;57.04;92644.91;2035254;70;20508;-76
2023/04/27 01:27:06;;;;;;;;;;;;;;;11.14;55.66;92650.50;2038210;70;20056;-76
2023/04/27 01:29:32;;;;;;;;;;;;;;;11.10;55.19;92653.09;2035378;70;20052;-75
2023/04/27 01:31:57;;;;;;;;;;;;;;;11.12;54.63;92658.84;2037981;70;20052;-76
2023/04/27 01:34:23;;;;;;;;;;;;;;;11.12;55.33;92659.56;2038484;70;20164;-76
2023/04/27 01:36:48;;;;;;;;;;;;;;;10.99;54.61;92665.84;2038542;70;20048;-77
2023/04/27 01:39:14;;;;;;;;;;;;;;;10.75;56.46;92670.03;2037960;70;20052;-77
2023/04/27 01:41:40;;;;;;;;;;;;;;;10.79;56.82;92670.28;2038215;70;20048;-77
2023/04/27 01:44:05;;;;;;;;;;;;;;;10.83;56.81;92664.91;2038549;70;20487;-76
2023/04/27 01:46:31;;;;;;;;;;;;;;;10.96;57.49;92672.72;2038595;70;20055;-76
2023/04/27 01:48:56;;;;;;;;;;;;;;;10.94;58.76;92669.78;2037972;70;20048;-76
2023/04/27 01:51:22;;;;;;;;;;;;;;;10.88;59.31;92660.97;2038565;70;20115;-76
2023/04/27 01:53:48;;;;;;;;;;;;;;;10.97;57.60;92665.72;2035168;70;20115;-75
2023/04/27 01:56:15;;;;;;;;;;;;;;;10.94;57.91;92678.22;2038587;70;20056;-76
2023/04/27 01:58:40;;;;;;;;;;;;;;;10.91;59.38;92673.84;2038313;70;20061;-76
2023/04/27 02:01:06;;;;;;;;;;;;;;;10.96;59.14;92677.63;2035261;70;20052;-75
2023/04/27 02:03:32;;;;;;;;;;;;;;;10.79;60.66;92673.84;2035269;70;20508;-75
2023/04/27 02:05:57;;;;;;;;;;;;;;;10.83;59.54;92673.34;2037991;70;20432;-76
2023/04/27 02:08:22;;;;;;;;;;;;;;;10.84;58.88;92677.63;2035323;70;20404;-76
2023/04/27 02:10:48;;;;;;;;;;;;;;;10.86;59.18;92675.69;2038520;70;20099;-76
2023/04/27 02:13:15;;;;;;;;;;;;;;;10.76;57.93;92669.41;2037808;70;20159;-76
2023/04/27 02:15:40;;;;;;;;;;;;;;;10.66;58.93;92671.63;2037929;70;20145;-75
2023/04/27 02:18:06;;;;;;;;;;;;;;;10.69;59.88;92676.78;2038235;70;20054;-75
2023/04/27 02:20:32;;;;;;;;;;;;;;;10.72;59.47;92685.34;2035461;70;20552;-76
2023/04/27 02:22:59;;;;;;;;;;;;;;;10.79;59.33;92675.91;2035492;70;20424;-77
2023/04/27 02:25:25;;;;;;;;;;;;;;;10.68;59.94;92675.31;2035549;70;20052;-77
2023/04/27 02:27:51;;;;;;;;;;;;;;;10.76;58.88;92679.97;2038721;70;20064;-76
2023/04/27 02:30:18;;;;;;;;;;;;;;;10.82;57.73;92671.88;2038102;70;20099;-77
2023/04/27 02:32:43;;;;;;;;;;;;;;;10.75;59.45;92673.59;2038790;70;20501;-76
2023/04/27 02:35:09;;;;;;;;;;;;;;;10.64;59.75;92674.34;2038871;70;20052;-76
2023/04/27 02:37:34;;;;;;;;;;;;;;;10.66;59.26;92668.81;2038618;70;20060;-76
2023/04/27 02:40:00;;;;;;;;;;;;;;;10.53;59.27;92650.47;2038065;70;20068;-76
2023/04/27 02:42:25;;;;;;;;;;;;;;;10.74;59.11;92683.38;2038054;70;20044;-76
2023/04/27 02:44:51;;;;;;;;;;;;;;;10.48;62.59;92679.72;2038578;70;20148;-77
2023/04/27 02:47:17;;;;;;;;;;;;;;;10.54;60.53;92670.94;2037919;70;20397;-76
2023/04/27 02:49:42;;;;;;;;;;;;;;;10.69;59.09;92671.16;2038150;70;20056;-77
2023/04/27 02:52:08;;;;;;;;;;;;;;;10.15;62.18;92674.16;2035363;70;20052;-76
2023/04/27 02:54:33;;;;;;;;;;;;;;;10.40;60.41;92674.34;2035579;70;20083;-76
2023/04/27 02:56:59;;;;;;;;;;;;;;;10.36;60.36;92662.84;2038787;70;20044;-77
2023/04/27 02:59:25;;;;;;;;;;;;;;;10.62;58.70;92677.03;2038736;70;20575;-76
2023/04/27 03:01:50;;;;;;;;;;;;;;;10.60;59.91;92676.91;2037786;70;20124;-76
2023/04/27 03:04:16;;;;;;;;;;;;;;;10.23;60.62;92665.50;2038074;70;20084;-76
2023/04/27 03:06:42;;;;;;;;;;;;;;;10.33;59.86;92671.75;2039093;70;20086;-76
2023/04/27 03:09:09;;;;;;;;;;;;;;;9.76;61.43;92656.94;2039061;70;20485;-76
2023/04/27 03:11:34;;;;;;;;;;;;;;;10.08;61.14;92658.25;2038841;70;20052;-75
2023/04/27 03:14:00;;;;;;;;;;;;;;;10.16;59.86;92659.47;2039180;70;20544;-76
2023/04/27 03:16:26;;;;;;;;;;;;;;;10.13;60.62;92663.53;2035627;70;20120;-76
2023/04/27 03:18:51;;;;;;;;;;;;;;;10.27;61.21;92666.50;2035674;70;20063;-75
2023/04/27 03:21:17;;;;;;;;;;;;;;;10.25;61.50;92660.75;2038654;70;20051;-76
2023/04/27 03:23:42;;;;;;;;;;;;;;;10.34;60.83;92659.16;2039002;70;20432;-76
2023/04/27 03:26:09;;;;;;;;;;;;;;;10.37;60.31;92661.50;2038899;70;20420;-76
2023/04/27 03:28:35;;;;;;;;;;;;;;;10.30;59.79;92662.44;2038995;70;20120;-75
2023/04/27 03:31:03;;;;;;;;;;;;;;;10.37;60.38;92658.69;2041565;70;20147;-76
2023/04/27 03:33:29;;;;;;;;;;;;;;;10.39;59.45;92652.44;2035685;70;20127;-76
2023/04/27 03:35:55;;;;;;;;;;;;;;;10.41;60.50;92658.19;2039135;70;20095;-76
2023/04/27 03:38:21;;;;;;;;;;;;;;;10.33;61.72;92672.50;2038939;70;20048;-76
2023/04/27 03:40:46;;;;;;;;;;;;;;;10.09;61.65;92688.59;2035668;70;20059;-76
2023/04/27 03:43:12;;;;;;;;;;;;;;;10.11;61.83;92696.41;2038218;70;20108;-75
2023/04/27 03:45:37;;;;;;;;;;;;;;;9.81;62.99;92698.06;2035613;70;20512;-76
2023/04/27 03:48:03;;;;;;;;;;;;;;;9.74;63.08;92702.56;2039212;70;20045;-77
2023/04/27 03:50:28;;;;;;;;;;;;;;;9.41;64.43;92708.91;2038802;70;20088;-76
2023/04/27 03:52:54;;;;;;;;;;;;;;;9.37;65.70;92721.94;2038323;70;20060;-76
2023/04/27 03:55:20;;;;;;;;;;;;;;;9.74;64.12;92707.44;2038950;70;20082;-76
2023/04/27 03:57:45;;;;;;;;;;;;;;;9.91;62.96;92707.88;2038178;70;20060;-76
2023/04/27 04:00:11;;;;;;;;;;;;;;;9.85;63.01;92718.75;2038964;70;20079;-76
2023/04/27 04:02:40;;;;;;;;;;;;;;;9.97;62.19;92713.13;2041304;70;20143;-77
2023/04/27 04:05:07;;;;;;;;;;;;;;;9.99;63.21;92709.69;2039015;70;20056;-76
2023/04/27 04:07:33;;;;;;;;;;;;;;;10.05;63.45;92718.53;2035084;70;20216;-74
2023/04/27 04:09:59;;;;;;;;;;;;;;;10.13;63.02;92730.31;2035498;70;20089;-76
2023/04/27 04:12:24;;;;;;;;;;;;;;;10.09;64.12;92730.78;2035492;70;20058;-74
2023/04/27 04:14:50;;;;;;;;;;;;;;;10.05;63.80;92730.53;2035444;70;20055;-74
2023/04/27 04:17:15;;;;;;;;;;;;;;;9.82;64.72;92736.81;2038040;70;20064;-75
2023/04/27 04:19:41;;;;;;;;;;;;;;;9.76;64.08;92744.88;2035464;70;20060;-75
2023/04/27 04:22:06;;;;;;;;;;;;;;;9.48;63.50;92740.19;2035318;70;20151;-75
2023/04/27 04:24:32;;;;;;;;;;;;;;;9.31;65.69;92744.03;2032671;70;20447;-75
2023/04/27 04:26:58;;;;;;;;;;;;;;;9.12;67.56;92744.91;2038571;70;20062;-75
2023/04/27 04:29:24;;;;;;;;;;;;;;;9.62;65.43;92741.88;2038786;70;20060;-76
2023/04/27 04:31:50;;;;;;;;;;;;;;;9.84;65.71;92747.44;2035807;70;20151;-76
2023/04/27 04:34:18;;;;;;;;;;;;;;;9.89;65.88;92743.53;2038217;70;20052;-76
2023/04/27 04:36:44;;;;;;;;;;;;;;;9.97;64.95;92743.34;2035558;70;20056;-77
2023/04/27 04:39:11;;;;;;;;;;;;;;;10.11;63.99;92752.66;2038584;70;20056;-76
2023/04/27 04:41:37;;;;;;;;;;;;;;;10.07;64.89;92752.41;2038807;70;20048;-76
2023/04/27 04:44:02;;;;;;;;;;;;;;;10.09;64.98;92758.91;2038860;70;20080;-76
2023/04/27 04:46:29;;;;;;;;;;;;;;;10.15;64.34;92753.66;2038714;70;20058;-77
2023/04/27 04:48:55;;;;;;;;;;;;;;;10.19;64.35;92756.72;2035563;70;20048;-77
2023/04/27 04:51:20;;;;;;;;;;;;;;;10.05;65.16;92763.53;2035681;70;20078;-76
2023/04/27 04:53:46;;;;;;;;;;;;;;;10.12;65.44;92760.50;2035545;70;20124;-77
2023/04/27 04:56:15;;;;;;;;;;;;;;;10.19;64.77;92767.97;2035246;70;20063;-77
2023/04/27 04:58:41;;;;;;;;;;;;;;;10.18;64.25;92763.72;2038655;70;20056;-77
2023/04/27 05:01:07;;;;;;;;;;;;;;;10.17;63.99;92767.88;2035524;70;20127;-77
2023/04/27 05:03:32;;;;;;;;;;;;;;;10.14;65.38;92765.53;2035357;70;20072;-77
2023/04/27 05:05:58;;;;;;;;;;;;;;;10.19;65.29;92772.88;2038856;70;20144;-76
2023/04/27 05:08:24;;;;;;;;;;;;;;;10.22;65.66;92770.91;2038808;70;20461;-75
2023/04/27 05:10:49;;;;;;;;;;;;;;;10.25;65.72;92778.91;2038443;70;20414;-76
2023/04/27 05:13:15;;;;;;;;;;;;;;;10.29;64.60;92772.81;2038757;70;20541;-76
2023/04/27 05:15:40;;;;;;;;;;;;;;;9.97;65.46;92771.47;2038809;70;20052;-75
2023/04/27 05:18:06;;;;;;;;;;;;;;;9.95;66.16;92776.97;2038818;70;20060;-76
2023/04/27 05:20:35;;;;;;;;;;;;;;;9.49;67.59;92773.31;2038681;70;20072;-76
2023/04/27 05:23:01;;;;;;;;;;;;;;;9.88;66.47;92762.50;2038536;70;20051;-75
2023/04/27 05:25:30;;;;;;;;;;;;;;;10.27;64.59;92764.25;2038723;70;20052;-74
2023/04/27 05:27:57;;;;;;;;;;;;;;;10.46;63.78;92768.94;2035089;70;20048;-76
2023/04/27 05:30:23;;;;;;;;;;;;;;;10.63;63.07;92772.16;2038673;70;20056;-76
2023/04/27 05:32:49;;;;;;;;;;;;;;;10.68;63.39;92765.41;2038611;70;20063;-77
2023/04/27 05:35:14;;;;;;;;;;;;;;;10.51;64.49;92760.13;2035479;70;20052;-77
2023/04/27 05:37:40;;;;;;;;;;;;;;;10.57;63.66;92765.38;2038683;70;20477;-76
2023/04/27 05:40:08;;;;;;;;;;;;;;;10.62;63.83;92767.84;2038548;70;20114;-76
2023/04/27 05:42:35;;;;;;;;;;;;;;;10.59;64.42;92763.44;2038535;70;20055;-76
2023/04/27 05:45:02;;;;;;;;;;;;;;;10.54;63.77;92761.00;2038289;70;20056;-77
2023/04/27 05:47:27;;;;;;;;;;;;;;;10.77;62.57;92775.09;2038745;70;20048;-77
2023/04/27 05:49:53;;;;;;;;;;;;;;;10.83;62.39;92771.91;2038145;70;20048;-76
2023/04/27 05:52:18;;;;;;;;;;;;;;;10.88;62.50;92771.53;2038666;70;20060;-77
2023/04/27 05:54:47;;;;;;;;;;;;;;;10.89;63.32;92778.63;2035427;70;20056;-75
2023/04/27 05:57:13;;;;;;;;;;;;;;;10.30;63.95;92780.63;2038601;70;20071;-77
2023/04/27 05:59:38;;;;;;;;;;;;;;;10.12;64.28;92783.00;2038591;70;20200;-77
2023/04/27 06:02:04;;;;;;;;;;;;;;;9.83;67.01;92785.34;2038627;70;20056;-77
2023/04/27 06:04:31;;;;;;;;;;;;;;;10.13;66.02;92781.66;2039531;70;20059;-76
2023/04/27 06:06:57;;;;;;;;;;;;;;;10.49;64.30;92784.59;2038610;70;20572;-76
2023/04/27 06:09:22;;;;;;;;;;;;;;;10.36;62.92;92791.56;2038304;70;20080;-75
2023/04/27 06:11:47;;;;;;;;;;;;;;;10.48;63.36;92781.03;2038324;70;20052;-76
2023/04/27 06:14:13;;;;;;;;;;;;;;;10.68;62.74;92790.03;2035450;70;20150;-76
2023/04/27 06:16:39;;;;;;;;;;;;;;;10.09;65.43;92791.94;2038574;70;20060;-75
2023/04/27 06:19:05;;;;;;;;;;;;;;;10.12;64.27;92790.69;2038287;70;20091;-76
2023/04/27 06:21:31;;;;;;;;;;;;;;;9.68;65.33;92792.84;2038535;70;20187;-76
2023/04/27 06:23:56;;;;;;;;;;;;;;;9.77;65.54;92793.38;2038442;70;20059;-75
2023/04/27 06:26:22;;;;;;;;;;;;;;;10.46;64.01;92802.72;2038356;70;20079;-74
2023/04/27 06:28:47;;;;;;;;;;;;;;;10.40;62.90;92815.06;2038637;70;20193;-74
2023/04/27 06:31:13;;;;;;;;;;;;;;;10.28;61.39;92814.28;2038593;70;20219;-77
2023/04/27 06:33:38;;;;;;;;;;;;;;;10.08;61.60;92805.25;2038325;70;20549;-77
2023/04/27 06:36:04;;;;;;;;;;;;;;;10.30;62.91;92805.94;2038405;70;20048;-78
2023/04/27 06:38:29;;;;;;;;;;;;;;;10.64;61.80;92810.22;2038640;70;20453;-77
2023/04/27 06:40:55;;;;;;;;;;;;;;;10.27;61.79;92812.81;2038505;70;20048;-76
2023/04/27 06:43:21;;;;;;;;;;;;;;;9.82;63.64;92809.91;2038394;70;20187;-77
2023/04/27 06:45:46;;;;;;;;;;;;;;;10.43;63.22;92810.28;2038476;70;20044;-76
2023/04/27 06:48:12;;;;;;;;;;;;;;;10.51;62.01;92822.06;2035123;70;20056;-76
2023/04/27 06:50:37;;;;;;;;;;;;;;;10.36;63.56;92822.50;2038139;70;20444;-75
2023/04/27 06:53:02;;;;;;;;;;;;;;;10.42;64.14;92817.25;2040571;70;20087;-75
2023/04/27 06:55:28;;;;;;;;;;;;;;;10.36;64.33;92830.94;2035841;70;20424;-75
2023/04/27 06:57:53;;;;;;;;;;;;;;;10.59;62.36;92835.91;2038823;70;20164;-75
2023/04/27 07:00:19;;;;;;;;;;;;;;;10.68;61.30;92827.34;2038521;70;20056;-75
2023/04/27 07:02:44;;;;;;;;;;;;;;;10.86;62.07;92835.47;2038407;70;20529;-75
2023/04/27 07:05:10;;;;;;;;;;;;;;;10.62;62.45;92838.22;2038227;70;20052;-75
2023/04/27 07:07:35;;;;;;;;;;;;;;;11.08;61.89;92836.81;2034754;70;20064;-77
2023/04/27 07:10:08;;;;;;;;;;;;;;;11.43;62.37;92844.53;2038609;70;20041;-75
2023/04/27 07:12:35;;;;;;;;;;;;;;;11.80;61.62;92844.63;2038413;70;20120;-76
2023/04/27 07:15:03;;;;;;;;;;;;;;;12.12;58.82;92833.75;2040089;70;20047;-76
2023/04/27 07:17:29;;;;;;;;;;;;;;;11.93;59.94;92834.81;2042030;70;20054;-76
2023/04/27 07:19:57;;;;;;;;;;;;;;;11.75;59.32;92831.63;2041671;70;20052;-74
2023/04/27 07:22:23;;;;;;;;;;;;;;;12.12;59.53;92831.66;2041362;70;20064;-75
2023/04/27 07:24:49;;;;;;;;;;;;;;;11.51;59.13;92830.94;2041434;70;20067;-75
2023/04/27 07:27:15;;;;;;;;;;;;;;;11.75;58.59;92828.81;2041631;70;20055;-74
2023/04/27 07:29:42;;;;;;;;;;;;;;;12.37;57.05;92833.03;2041671;70;20465;-75
2023/04/27 07:32:07;;;;;;;;;;;;;;;12.32;57.22;92831.34;2041647;70;20484;-75
2023/04/27 07:34:33;;;;;;;;;;;;;;;11.52;59.80;92832.41;2041604;70;20150;-75
2023/04/27 07:37:00;;;;;;;;;;;;;;;11.56;58.57;92843.91;2041812;70;20504;-74
2023/04/27 07:39:25;;;;;;;;;;;;;;;11.34;59.69;92842.59;2042324;70;20040;-72
2023/04/27 07:41:52;;;;;;;;;;;;;;;12.31;58.13;92844.00;2041293;70;20066;-74
2023/04/27 07:44:19;;;;;;;;;;;;;;;12.36;57.44;92842.88;2041505;70;20052;-75
2023/04/27 07:46:48;;;;;;;;;;;;;;;12.67;57.41;92836.84;2038274;70;20051;-75
2023/04/27 07:49:16;;;;;;;;;;;;;;;12.63;56.80;92837.34;2041612;70;20452;-75
2023/04/27 07:51:42;;;;;;;;;;;;;;;11.97;58.46;92832.22;2039997;70;20138;-75
2023/04/27 07:54:07;;;;;;;;;;;;;;;12.27;56.76;92836.03;2038896;70;20060;-75
2023/04/27 07:56:33;;;;;;;;;;;;;;;12.50;57.17;92837.28;2038495;70;20067;-76
2023/04/27 07:58:58;;;;;;;;;;;;;;;11.53;58.90;92839.50;2041500;70;20060;-76
2023/04/27 08:01:23;;;;;;;;;;;;;;;11.43;60.55;92841.72;2042375;70;20072;-76
2023/04/27 08:03:49;;;;;;;;;;;;;;;13.26;58.45;92837.22;2042066;70;20060;-75
2023/04/27 08:06:15;;;;;;;;;;;;;;;13.50;55.03;92834.94;2042149;70;20060;-74
2023/04/27 08:08:40;;;;;;;;;;;;;;;13.65;55.98;92837.16;2042343;70;20048;-75
2023/04/27 08:11:09;;;;;;;;;;;;;;;12.66;57.01;92838.19;2042195;70;20143;-76
2023/04/27 08:13:35;;;;;;;;;;;;;;;12.97;54.29;92844.16;2038732;70;20445;-74
2023/04/27 08:16:01;;;;;;;;;;;;;;;13.43;54.53;92841.66;2042031;70;20047;-76
2023/04/27 08:18:26;;;;;;;;;;;;;;;13.51;54.34;92844.88;2042409;70;20055;-76
2023/04/27 08:20:52;;;;;;;;;;;;;;;13.81;52.84;92837.25;2042227;70;20393;-76
2023/04/27 08:23:17;;;;;;;;;;;;;;;13.87;53.47;92837.53;2041797;70;20419;-75
2023/04/27 08:25:43;;;;;;;;;;;;;;;13.50;53.08;92839.84;2042315;70;20075;-76
2023/04/27 08:28:08;;;;;;;;;;;;;;;13.69;55.29;92847.91;2041990;70;20500;-76
2023/04/27 08:30:33;;;;;;;;;;;;;;;14.23;51.92;92837.91;2041769;70;20522;-76
2023/04/27 08:32:59;;;;;;;;;;;;;;;14.98;50.57;92841.56;2042588;70;20051;-75
2023/04/27 08:35:24;;;;;;;;;;;;;;;15.34;48.74;92841.03;2042193;70;20075;-75
2023/04/27 08:37:50;;;;;;;;;;;;;;;15.04;48.24;92838.25;2041988;70;20063;-75
2023/04/27 08:40:15;;;;;;;;;;;;;;;14.44;50.90;92840.38;2042024;70;20099;-75
2023/04/27 08:42:52;;;;;;;;;;;;;;;13.85;52.05;92833.88;2041823;70;20146;-74
2023/04/27 08:45:17;;;;;;;;;;;;;;;14.71;49.62;92836.75;2042188;70;20420;-74
2023/04/27 08:47:45;;;;;;;;;;;;;;;14.97;48.57;92834.41;2041770;70;20531;-75
2023/04/27 08:50:12;;;;;;;;;;;;;;;15.17;47.54;92822.56;2042680;70;20051;-75
2023/04/27 08:52:37;;;;;;;;;;;;;;;15.84;48.11;92822.69;2042323;70;20119;-77
2023/04/27 08:55:03;;;;;;;;;;;;;;;16.36;45.72;92828.44;2040600;70;20087;-78
2023/04/27 08:57:29;;;;;;;;;;;;;;;17.13;46.51;92825.84;2041068;70;20477;-76
2023/04/27 08:59:59;;;;;;;;;;;;;;;17.08;44.83;92820.66;2041829;70;20048;-77
2023/04/27 09:02:28;;;;;;;;;;;;;;;16.46;45.28;92818.22;2039435;70;20067;-74
2023/04/27 09:04:53;;;;;;;;;;;;;;;17.10;45.43;92820.75;2038430;70;20115;-76
2023/04/27 09:07:19;;;;;;;;;;;;;;;17.57;42.98;92813.97;2039705;70;20530;-77
2023/04/27 09:09:47;;;;;;;;;;;;;;;18.14;40.89;92816.72;2040305;70;20060;-77
2023/04/27 09:12:20;;;;;;;;;;;;;;;17.02;43.04;92812.63;2041133;70;20074;-74
2023/04/27 09:14:56;;;;;;;;;;;;;;;17.96;41.47;92804.69;2041611;70;20057;-74
2023/04/27 09:17:26;;;;;;;;;;;;;;;18.33;42.56;92805.97;2038792;70;20119;-74
2023/04/27 09:20:05;;;;;;;;;;;;;;;18.38;41.33;92790.47;2038687;70;20056;-76
2023/04/27 09:22:30;;;;;;;;;;;;;;;16.49;43.38;92796.28;2038214;70;20062;-76
2023/04/27 09:24:56;;;;;;;;;;;;;;;17.56;41.87;92796.16;2038611;70;20147;-74
2023/04/27 09:27:22;;;;;;;;;;;;;;;18.10;40.05;92798.75;2035861;70;20124;-74
2023/04/27 09:29:47;;;;;;;;;;;;;;;16.86;41.92;92783.53;2038513;70;20573;-74
2023/04/27 09:32:16;;;;;;;;;;;;;;;16.92;42.28;92784.53;2038792;70;20108;-74
2023/04/27 09:34:42;;;;;;;;;;;;;;;17.84;40.67;92781.50;2038615;70;20080;-74
2023/04/27 09:37:09;;;;;;;;;;;;;;;18.31;41.02;92783.09;2038827;70;20063;-76
2023/04/27 09:39:37;;;;;;;;;;;;;;;18.88;40.06;92780.00;2038776;70;20059;-75
2023/04/27 09:42:03;;;;;;;;;;;;;;;19.02;38.85;92771.16;2038557;70;20506;-75
2023/04/27 09:44:29;;;;;;;;;;;;;;;18.42;39.70;92776.34;2038673;70;20496;-75
2023/04/27 09:46:59;;;;;;;;;;;;;;;19.25;41.50;92775.41;2038309;70;20115;-74
2023/04/27 09:49:25;;;;;;;;;;;;;;;18.87;40.02;92774.94;2038882;70;20087;-74
2023/04/27 09:51:53;;;;;;;;;;;;;;;19.33;40.29;92761.34;2038593;70;20084;-73
2023/04/27 09:54:20;;;;;;;;;;;;;;;19.70;39.32;92757.47;2038742;70;20052;-75
2023/04/27 09:56:59;;;;;;;;;;;;;;;20.51;38.94;92755.31;2038618;70;20048;-76
2023/04/27 09:59:39;;;;;;;;;;;;;;;19.13;38.70;92755.06;2039986;70;20059;-74
2023/04/27 10:02:05;;;;;;;;;;;;;;;21.19;38.00;92749.75;2041869;70;20051;-74
2023/04/27 10:04:39;;;;;;;;;;;;;;;21.91;36.77;92743.38;2039987;70;20062;-75
2023/04/27 10:07:13;;;;;;;;;;;;;;;21.79;36.04;92754.59;2038637;70;20512;-79
2023/04/27 10:09:41;;;;;;;;;;;;;;;22.33;34.81;92748.50;2038536;70;20055;-75
2023/04/27 10:12:14;;;;;;;;;;;;;;;21.62;36.40;92741.34;2038608;70;20048;-74
2023/04/27 10:14:47;;;;;;;;;;;;;;;19.74;36.54;92737.56;2037949;70;20044;-75
2023/04/27 10:17:12;;;;;;;;;;;;;;;21.03;36.13;92740.81;2039749;70;20448;-74
2023/04/27 10:19:38;;;;;;;;;;;;;;;20.93;35.48;92744.16;2037897;70;20489;-75
2023/04/27 10:22:04;;;;;;;;;;;;;;;20.06;36.33;92739.84;2038279;70;20520;-76
2023/04/27 10:24:38;;;;;;;;;;;;;;;22.35;35.27;92737.03;2038463;70;20100;-77
2023/04/27 10:27:12;;;;;;;;;;;;;;;21.35;34.86;92746.56;2035082;70;20170;-74
2023/04/27 10:29:40;;;;;;;;;;;;;;;22.60;35.10;92743.22;2038469;70;20052;-76
2023/04/27 10:32:17;;;;;;;;;;;;;;;23.48;33.03;92742.41;2038441;70;20424;-77
2023/04/27 10:34:46;;;;;;;;;;;;;;;22.71;33.18;92741.94;2038547;70;20076;-77
2023/04/27 10:37:13;;;;;;;;;;;;;;;23.93;31.62;92734.38;2038346;70;20056;-75
2023/04/27 10:39:40;;;;;;;;;;;;;;;25.15;29.38;92741.28;2038329;70;20208;-77
2023/04/27 10:42:05;;;;;;;;;;;;;;;26.27;28.59;92741.16;2034865;70;20147;-76
2023/04/27 10:44:33;;;;;;;;;;;;;;;28.46;26.86;92739.50;2038692;70;20139;-76
2023/04/27 10:47:00;;;;;;;;;;;;;;;32.05;23.04;92746.81;2038555;70;20129;-77
2023/04/27 10:49:27;;;;;;;;;;;;;;;31.11;22.89;92739.69;2038636;70;20504;-76
2023/04/27 10:51:53;;;;;;;;;;;;;;;31.80;21.74;92751.63;2038457;70;20052;-77
2023/04/27 10:54:18;;;;;;;;;;;;;;;27.99;25.23;92736.06;2035284;70;20584;-76
2023/04/27 10:56:44;;;;;;;;;;;;;;;25.29;28.93;92729.13;2038448;70;20113;-74
2023/04/27 10:59:09;;;;;;;;;;;;;;;25.17;28.73;92729.81;2038206;70;20056;-76
2023/04/27 11:01:35;;;;;;;;;;;;;;;26.39;28.35;92726.78;2038354;70;20056;-76
2023/04/27 11:04:02;;;;;;;;;;;;;;;32.43;22.67;92732.25;2038263;70;20121;-76
2023/04/27 11:06:29;;;;;;;;;;;;;;;27.31;25.30;92721.06;2037394;70;20064;-78
2023/04/27 11:08:55;;;;;;;;;;;;;;;27.24;25.23;92726.13;2037515;70;20189;-77
2023/04/27 11:11:23;;;;;;;;;;;;;;;30.30;22.61;92732.81;2037730;70;20060;-77
2023/04/27 11:13:48;;;;;;;;;;;;;;;28.30;25.92;92719.31;2038913;70;20059;-76
2023/04/27 11:16:15;;;;;;;;;;;;;;;30.00;24.01;92722.25;2040724;70;20060;-76
2023/04/27 11:18:41;;;;;;;;;;;;;;;24.85;29.11;92721.63;2041523;70;20445;-77
2023/04/27 11:21:17;;;;;;;;;;;;;;;25.63;28.78;92719.97;2038154;70;20403;-76
2023/04/27 11:23:43;;;;;;;;;;;;;;;27.55;27.40;92721.00;2041717;70;20055;-75
2023/04/27 11:26:09;;;;;;;;;;;;;;;29.50;25.33;92730.03;2041695;70;20064;-74
2023/04/27 11:28:35;;;;;;;;;;;;;;;29.41;24.53;92731.56;2042261;70;20021;-75
2023/04/27 11:31:00;;;;;;;;;;;;;;;27.85;25.24;92728.88;2042153;70;20067;-75
2023/04/27 11:33:27;;;;;;;;;;;;;;;25.92;27.43;92726.59;2041960;70;20052;-77
2023/04/27 11:35:52;;;;;;;;;;;;;;;24.72;29.36;92723.66;2042366;70;20044;-76
2023/04/27 11:38:18;;;;;;;;;;;;;;;24.62;29.98;92722.88;2042206;70;20599;-76
2023/04/27 11:40:45;;;;;;;;;;;;;;;23.21;31.58;92730.53;2042471;70;20071;-77
2023/04/27 11:43:11;;;;;;;;;;;;;;;23.73;31.77;92729.09;2042176;70;20055;-78
2023/04/27 11:45:40;;;;;;;;;;;;;;;23.30;32.10;92719.91;2042317;70;20032;-77
2023/04/27 11:48:06;;;;;;;;;;;;;;;22.27;32.93;92711.84;2042343;70;20476;-76
2023/04/27 11:50:31;;;;;;;;;;;;;;;23.16;32.21;92711.81;2042041;70;20054;-78
2023/04/27 11:52:59;;;;;;;;;;;;;;;22.64;32.22;92714.59;2042353;70;20174;-75
2023/04/27 11:55:25;;;;;;;;;;;;;;;22.53;32.42;92714.41;2042339;70;20051;-75
2023/04/27 11:57:55;;;;;;;;;;;;;;;21.72;33.47;92710.78;2041575;70;20131;-75
2023/04/27 12:00:21;;;;;;;;;;;;;;;21.70;33.51;92710.00;2041768;70;20147;-75
2023/04/27 12:02:46;;;;;;;;;;;;;;;22.46;32.63;92712.16;2038631;70;20139;-75
2023/04/27 12:05:12;;;;;;;;;;;;;;;21.91;34.01;92711.16;2038600;70;20079;-75
2023/04/27 12:07:37;;;;;;;;;;;;;;;21.45;34.39;92703.81;2041622;70;20481;-76
2023/04/27 12:10:03;;;;;;;;;;;;;;;21.41;35.69;92703.72;2041914;70;20083;-75
2023/04/27 12:12:28;;;;;;;;;;;;;;;25.64;28.88;92709.16;2042139;70;20046;-75
2023/04/27 12:14:54;;;;;;;;;;;;;;;26.54;27.91;92705.16;2042119;70;20102;-75
2023/04/27 12:17:20;;;;;;;;;;;;;;;24.08;30.45;92707.94;2042018;70;20424;-74
2023/04/27 12:19:45;;;;;;;;;;;;;;;25.96;28.22;92705.72;2042054;70;20091;-76
2023/04/27 12:22:10;;;;;;;;;;;;;;;24.62;31.17;92712.06;2042225;70;20139;-75
2023/04/27 12:24:36;;;;;;;;;;;;;;;24.76;29.67;92705.72;2038674;70;20103;-75
2023/04/27 12:27:02;;;;;;;;;;;;;;;21.16;34.20;92705.31;2042382;70;20055;-75
2023/04/27 12:29:30;;;;;;;;;;;;;;;23.15;31.44;92704.63;2042184;70;20142;-75
2023/04/27 12:31:57;;;;;;;;;;;;;;;28.38;26.19;92715.69;2042430;70;20135;-75
2023/04/27 12:34:23;;;;;;;;;;;;;;;24.73;30.33;92704.25;2042044;70;20047;-75
2023/04/27 12:36:48;;;;;;;;;;;;;;;24.67;30.05;92704.19;2042096;70;20055;-76
2023/04/27 12:39:18;;;;;;;;;;;;;;;26.18;28.38;92705.06;2042073;70;20067;-75
2023/04/27 12:41:44;;;;;;;;;;;;;;;24.56;29.38;92697.66;2041744;70;20181;-75
2023/04/27 12:44:11;;;;;;;;;;;;;;;25.12;28.61;92713.22;2038881;70;20568;-75